sensor_id;sensor_type;location;lat;lon;timestamp;temperature;humidity
30764;DHT22;17497;51.476;7.770;2023-06-10T00:01:16;19.90;99.90
30764;DHT22;17497;51.476;7.770;2023-06-10T00:03:43;19.80;99.90
30764;DHT22;17497;51.476;7.770;2023-06-10T00:06:10;19.80;99.90
30764;DHT22;17497;51.476;7.770;2023-06-10T00:08:37;19.80;99.90
30764;DHT22;17497;51.476;7.770;2023-06-10T00:11:06;19.80;99.90
30764;DHT22;17497;51.476;7.770;2023-06-10T00:13:33;19.60;99.90
30764;DHT22;17497;51.476;7.770;2023-06-10T00:16:00;19.60;99.90
30764;DHT22;17497;51.476;7.770;2023-06-10T00:18:27;19.60;99.90
30764;DHT22;17497;51.476;7.770;2023-06-10T00:20:58;19.50;99.90
30764;DHT22;17497;51.476;7.770;2023-06-10T00:23:31;19.40;99.90
30764;DHT22;17497;51.476;7.770;2023-06-10T00:25:58;19.40;99.90
30764;DHT22;17497;51.476;7.770;2023-06-10T00:28:26;19.30;99.90
30764;DHT22;17497;51.476;7.770;2023-06-10T00:30:53;19.30;99.90
30764;DHT22;17497;51.476;7.770;2023-06-10T00:33:19;19.30;99.90
30764;DHT22;17497;51.476;7.770;2023-06-10T00:35:47;19.20;99.90
30764;DHT22;17497;51.476;7.770;2023-06-10T00:38:14;19.20;99.90
30764;DHT22;17497;51.476;7.770;2023-06-10T00:40:41;19.10;99.90
30764;DHT22;17497;51.476;7.770;2023-06-10T00:43:09;19.20;99.90
30764;DHT22;17497;51.476;7.770;2023-06-10T00:45:35;19.10;99.90
30764;DHT22;17497;51.476;7.770;2023-06-10T00:48:03;19.10;99.90
30764;DHT22;17497;51.476;7.770;2023-06-10T00:50:31;19.00;99.90
30764;DHT22;17497;51.476;7.770;2023-06-10T00:52:59;19.00;99.90
30764;DHT22;17497;51.476;7.770;2023-06-10T00:55:26;19.00;99.90
30764;DHT22;17497;51.476;7.770;2023-06-10T00:57:53;19.00;99.90
30764;DHT22;17497;51.476;7.770;2023-06-10T01:00:20;18.90;99.90
30764;DHT22;17497;51.476;7.770;2023-06-10T01:02:47;18.90;99.90
30764;DHT22;17497;51.476;7.770;2023-06-10T01:05:16;18.90;99.90
30764;DHT22;17497;51.476;7.770;2023-06-10T01:10:49;18.90;99.90
30764;DHT22;17497;51.476;7.770;2023-06-10T01:13:17;18.90;99.90
30764;DHT22;17497;51.476;7.770;2023-06-10T01:15:45;18.90;99.90
30764;DHT22;17497;51.476;7.770;2023-06-10T01:18:12;18.90;99.90
30764;DHT22;17497;51.476;7.770;2023-06-10T01:20:42;18.90;99.90
30764;DHT22;17497;51.476;7.770;2023-06-10T01:23:11;18.80;99.90
30764;DHT22;17497;51.476;7.770;2023-06-10T01:25:44;18.80;99.90
30764;DHT22;17497;51.476;7.770;2023-06-10T01:28:36;18.70;99.90
30764;DHT22;17497;51.476;7.770;2023-06-10T01:31:26;18.80;99.90
30764;DHT22;17497;51.476;7.770;2023-06-10T01:34:01;18.60;99.90
30764;DHT22;17497;51.476;7.770;2023-06-10T01:36:29;18.60;99.90
30764;DHT22;17497;51.476;7.770;2023-06-10T01:38:59;18.60;99.90
30764;DHT22;17497;51.476;7.770;2023-06-10T01:41:28;18.60;99.90
30764;DHT22;17497;51.476;7.770;2023-06-10T01:43:56;18.60;99.90
30764;DHT22;17497;51.476;7.770;2023-06-10T01:46:23;18.60;99.90
30764;DHT22;17497;51.476;7.770;2023-06-10T01:48:50;18.60;99.90
30764;DHT22;17497;51.476;7.770;2023-06-10T01:51:17;18.50;99.90
30764;DHT22;17497;51.476;7.770;2023-06-10T01:53:45;18.50;99.90
30764;DHT22;17497;51.476;7.770;2023-06-10T01:56:11;18.40;99.90
30764;DHT22;17497;51.476;7.770;2023-06-10T01:58:43;18.30;99.90
30764;DHT22;17497;51.476;7.770;2023-06-10T02:01:11;18.30;99.90
30764;DHT22;17497;51.476;7.770;2023-06-10T02:03:38;18.30;99.90
30764;DHT22;17497;51.476;7.770;2023-06-10T02:06:05;18.30;99.90
30764;DHT22;17497;51.476;7.770;2023-06-10T02:08:32;18.20;99.90
30764;DHT22;17497;51.476;7.770;2023-06-10T02:10:59;18.20;99.90
30764;DHT22;17497;51.476;7.770;2023-06-10T02:13:26;18.20;99.90
30764;DHT22;17497;51.476;7.770;2023-06-10T02:15:53;18.20;99.90
30764;DHT22;17497;51.476;7.770;2023-06-10T02:18:20;18.20;99.90
30764;DHT22;17497;51.476;7.770;2023-06-10T02:20:48;18.30;99.90
30764;DHT22;17497;51.476;7.770;2023-06-10T02:23:15;18.30;99.90
30764;DHT22;17497;51.476;7.770;2023-06-10T02:25:42;18.30;99.90
30764;DHT22;17497;51.476;7.770;2023-06-10T02:28:09;18.20;99.90
30764;DHT22;17497;51.476;7.770;2023-06-10T02:30:42;18.20;99.90
30764;DHT22;17497;51.476;7.770;2023-06-10T02:33:09;18.10;99.90
30764;DHT22;17497;51.476;7.770;2023-06-10T02:35:40;18.00;99.90
30764;DHT22;17497;51.476;7.770;2023-06-10T02:38:08;18.00;99.90
30764;DHT22;17497;51.476;7.770;2023-06-10T02:40:35;17.90;99.90
30764;DHT22;17497;51.476;7.770;2023-06-10T02:43:02;17.90;99.90
30764;DHT22;17497;51.476;7.770;2023-06-10T02:45:29;17.90;99.90
30764;DHT22;17497;51.476;7.770;2023-06-10T02:47:55;17.90;99.90
30764;DHT22;17497;51.476;7.770;2023-06-10T02:50:23;17.90;99.90
30764;DHT22;17497;51.476;7.770;2023-06-10T02:52:50;17.80;99.90
30764;DHT22;17497;51.476;7.770;2023-06-10T02:55:19;17.80;99.90
30764;DHT22;17497;51.476;7.770;2023-06-10T02:57:46;17.80;99.90
30764;DHT22;17497;51.476;7.770;2023-06-10T03:00:13;17.80;99.90
30764;DHT22;17497;51.476;7.770;2023-06-10T03:02:40;17.80;99.90
30764;DHT22;17497;51.476;7.770;2023-06-10T03:05:07;17.80;99.90
30764;DHT22;17497;51.476;7.770;2023-06-10T03:07:38;17.70;99.90
30764;DHT22;17497;51.476;7.770;2023-06-10T03:10:06;17.70;99.90
30764;DHT22;17497;51.476;7.770;2023-06-10T03:12:33;17.70;99.90
30764;DHT22;17497;51.476;7.770;2023-06-10T03:15:00;17.60;99.90
30764;DHT22;17497;51.476;7.770;2023-06-10T03:17:27;17.50;99.90
30764;DHT22;17497;51.476;7.770;2023-06-10T03:19:53;17.50;99.90
30764;DHT22;17497;51.476;7.770;2023-06-10T03:22:20;17.50;99.90
30764;DHT22;17497;51.476;7.770;2023-06-10T03:24:48;17.50;99.90
30764;DHT22;17497;51.476;7.770;2023-06-10T03:27:16;17.50;99.90
30764;DHT22;17497;51.476;7.770;2023-06-10T03:29:44;17.50;99.90
30764;DHT22;17497;51.476;7.770;2023-06-10T03:32:11;17.50;99.90
30764;DHT22;17497;51.476;7.770;2023-06-10T03:34:38;17.50;99.90
30764;DHT22;17497;51.476;7.770;2023-06-10T03:37:05;17.50;99.90
30764;DHT22;17497;51.476;7.770;2023-06-10T03:39:32;17.50;99.90
30764;DHT22;17497;51.476;7.770;2023-06-10T03:41:59;17.50;99.90
30764;DHT22;17497;51.476;7.770;2023-06-10T03:44:26;17.50;99.90
30764;DHT22;17497;51.476;7.770;2023-06-10T03:46:55;17.60;99.90
30764;DHT22;17497;51.476;7.770;2023-06-10T03:49:22;17.50;99.90
30764;DHT22;17497;51.476;7.770;2023-06-10T03:51:53;17.50;99.90
30764;DHT22;17497;51.476;7.770;2023-06-10T03:54:20;17.50;99.90
30764;DHT22;17497;51.476;7.770;2023-06-10T03:56:55;17.50;99.90
30764;DHT22;17497;51.476;7.770;2023-06-10T03:59:25;17.50;99.90
30764;DHT22;17497;51.476;7.770;2023-06-10T04:01:52;17.50;99.90
30764;DHT22;17497;51.476;7.770;2023-06-10T04:04:19;17.50;99.90
30764;DHT22;17497;51.476;7.770;2023-06-10T04:06:46;17.50;99.90
30764;DHT22;17497;51.476;7.770;2023-06-10T04:09:15;17.60;99.90
30764;DHT22;17497;51.476;7.770;2023-06-10T04:11:43;17.60;99.90
30764;DHT22;17497;51.476;7.770;2023-06-10T04:14:13;17.50;99.90
30764;DHT22;17497;51.476;7.770;2023-06-10T04:16:40;17.60;99.90
30764;DHT22;17497;51.476;7.770;2023-06-10T04:19:09;17.60;99.90
30764;DHT22;17497;51.476;7.770;2023-06-10T04:21:36;17.60;99.90
30764;DHT22;17497;51.476;7.770;2023-06-10T04:24:09;17.60;99.90
30764;DHT22;17497;51.476;7.770;2023-06-10T04:26:37;17.60;99.90
30764;DHT22;17497;51.476;7.770;2023-06-10T04:29:04;17.60;99.90
30764;DHT22;17497;51.476;7.770;2023-06-10T04:31:31;17.60;99.90
30764;DHT22;17497;51.476;7.770;2023-06-10T04:34:02;17.70;99.90
30764;DHT22;17497;51.476;7.770;2023-06-10T04:36:29;17.60;99.90
30764;DHT22;17497;51.476;7.770;2023-06-10T04:38:56;17.60;99.90
30764;DHT22;17497;51.476;7.770;2023-06-10T05:22:10;17.90;99.90
30764;DHT22;17497;51.476;7.770;2023-06-10T05:24:37;17.90;99.90
30764;DHT22;17497;51.476;7.770;2023-06-10T05:27:05;18.00;99.90
30764;DHT22;17497;51.476;7.770;2023-06-10T05:29:33;18.00;99.90
30764;DHT22;17497;51.476;7.770;2023-06-10T05:32:01;18.10;99.90
30764;DHT22;17497;51.476;7.770;2023-06-10T05:34:31;18.10;99.90
30764;DHT22;17497;51.476;7.770;2023-06-10T05:36:58;18.10;99.90
30764;DHT22;17497;51.476;7.770;2023-06-10T05:39:26;18.10;99.90
30764;DHT22;17497;51.476;7.770;2023-06-10T05:41:55;18.20;99.90
30764;DHT22;17497;51.476;7.770;2023-06-10T05:44:25;18.20;99.90
30764;DHT22;17497;51.476;7.770;2023-06-10T05:46:53;18.30;99.90
30764;DHT22;17497;51.476;7.770;2023-06-10T05:49:20;18.30;99.90
30764;DHT22;17497;51.476;7.770;2023-06-10T05:51:47;18.40;99.90
30764;DHT22;17497;51.476;7.770;2023-06-10T05:54:14;18.50;99.90
30764;DHT22;17497;51.476;7.770;2023-06-10T05:56:41;18.50;99.90
30764;DHT22;17497;51.476;7.770;2023-06-10T05:59:08;18.50;99.90
30764;DHT22;17497;51.476;7.770;2023-06-10T06:01:36;18.60;99.90
30764;DHT22;17497;51.476;7.770;2023-06-10T06:04:03;18.60;99.90
30764;DHT22;17497;51.476;7.770;2023-06-10T06:06:32;18.60;99.90
30764;DHT22;17497;51.476;7.770;2023-06-10T06:08:59;18.70;99.90
30764;DHT22;17497;51.476;7.770;2023-06-10T06:11:26;18.80;99.90
30764;DHT22;17497;51.476;7.770;2023-06-10T06:13:53;18.80;99.90
30764;DHT22;17497;51.476;7.770;2023-06-10T06:16:20;18.90;99.90
30764;DHT22;17497;51.476;7.770;2023-06-10T06:18:47;19.00;99.90
30764;DHT22;17497;51.476;7.770;2023-06-10T06:21:14;19.10;99.90
30764;DHT22;17497;51.476;7.770;2023-06-10T06:23:42;19.10;99.90
30764;DHT22;17497;51.476;7.770;2023-06-10T06:26:12;19.20;99.90
30764;DHT22;17497;51.476;7.770;2023-06-10T06:28:47;19.30;99.90
30764;DHT22;17497;51.476;7.770;2023-06-10T06:31:15;19.30;99.90
30764;DHT22;17497;51.476;7.770;2023-06-10T06:33:43;19.40;99.90
30764;DHT22;17497;51.476;7.770;2023-06-10T06:36:25;19.50;99.90
30764;DHT22;17497;51.476;7.770;2023-06-10T06:38:53;19.50;99.90
30764;DHT22;17497;51.476;7.770;2023-06-10T06:41:19;19.60;99.90
30764;DHT22;17497;51.476;7.770;2023-06-10T06:43:54;19.70;99.90
30764;DHT22;17497;51.476;7.770;2023-06-10T06:46:21;19.80;99.90
30764;DHT22;17497;51.476;7.770;2023-06-10T06:48:49;19.90;99.90
30764;DHT22;17497;51.476;7.770;2023-06-10T06:51:16;20.00;99.90
30764;DHT22;17497;51.476;7.770;2023-06-10T06:53:54;20.00;99.90
30764;DHT22;17497;51.476;7.770;2023-06-10T06:56:25;20.20;99.90
30764;DHT22;17497;51.476;7.770;2023-06-10T06:58:53;20.30;99.90
30764;DHT22;17497;51.476;7.770;2023-06-10T07:01:23;20.30;99.90
30764;DHT22;17497;51.476;7.770;2023-06-10T07:03:50;20.40;99.90
30764;DHT22;17497;51.476;7.770;2023-06-10T07:06:17;20.50;99.90
30764;DHT22;17497;51.476;7.770;2023-06-10T07:08:44;20.60;99.90
30764;DHT22;17497;51.476;7.770;2023-06-10T07:11:11;20.70;99.90
30764;DHT22;17497;51.476;7.770;2023-06-10T07:13:38;20.80;99.90
30764;DHT22;17497;51.476;7.770;2023-06-10T07:16:05;20.90;99.90
30764;DHT22;17497;51.476;7.770;2023-06-10T07:18:32;21.00;99.90
30764;DHT22;17497;51.476;7.770;2023-06-10T07:20:58;21.00;99.90
30764;DHT22;17497;51.476;7.770;2023-06-10T07:23:25;21.10;99.90
30764;DHT22;17497;51.476;7.770;2023-06-10T07:25:52;21.10;99.90
30764;DHT22;17497;51.476;7.770;2023-06-10T07:28:19;21.20;99.90
30764;DHT22;17497;51.476;7.770;2023-06-10T07:30:46;21.40;99.90
30764;DHT22;17497;51.476;7.770;2023-06-10T07:33:13;21.40;99.90
30764;DHT22;17497;51.476;7.770;2023-06-10T07:35:40;21.40;99.90
30764;DHT22;17497;51.476;7.770;2023-06-10T07:38:09;21.50;99.90
30764;DHT22;17497;51.476;7.770;2023-06-10T07:40:41;21.50;99.90
30764;DHT22;17497;51.476;7.770;2023-06-10T07:43:13;21.50;99.90
30764;DHT22;17497;51.476;7.770;2023-06-10T07:45:45;21.50;99.90
30764;DHT22;17497;51.476;7.770;2023-06-10T07:48:13;21.50;99.90
30764;DHT22;17497;51.476;7.770;2023-06-10T07:50:42;21.60;99.90
30764;DHT22;17497;51.476;7.770;2023-06-10T07:53:09;21.60;99.90
30764;DHT22;17497;51.476;7.770;2023-06-10T07:55:42;21.60;99.90
30764;DHT22;17497;51.476;7.770;2023-06-10T07:58:09;21.70;99.90
30764;DHT22;17497;51.476;7.770;2023-06-10T08:00:39;21.70;99.90
30764;DHT22;17497;51.476;7.770;2023-06-10T08:03:05;21.80;99.90
30764;DHT22;17497;51.476;7.770;2023-06-10T08:05:32;21.80;99.90
30764;DHT22;17497;51.476;7.770;2023-06-10T08:07:59;21.90;99.90
30764;DHT22;17497;51.476;7.770;2023-06-10T08:10:29;21.90;99.90
30764;DHT22;17497;51.476;7.770;2023-06-10T08:12:56;21.90;99.90
30764;DHT22;17497;51.476;7.770;2023-06-10T08:15:23;22.00;99.90
30764;DHT22;17497;51.476;7.770;2023-06-10T08:17:54;22.00;99.90
30764;DHT22;17497;51.476;7.770;2023-06-10T08:20:21;22.00;99.90
30764;DHT22;17497;51.476;7.770;2023-06-10T08:22:48;22.00;99.90
30764;DHT22;17497;51.476;7.770;2023-06-10T08:25:15;22.00;99.90
30764;DHT22;17497;51.476;7.770;2023-06-10T08:27:48;22.10;99.90
30764;DHT22;17497;51.476;7.770;2023-06-10T08:30:15;22.20;99.90
30764;DHT22;17497;51.476;7.770;2023-06-10T08:32:45;22.20;99.90
30764;DHT22;17497;51.476;7.770;2023-06-10T08:35:12;22.20;99.90
30764;DHT22;17497;51.476;7.770;2023-06-10T08:37:42;22.30;99.90
30764;DHT22;17497;51.476;7.770;2023-06-10T08:40:09;22.40;99.90
30764;DHT22;17497;51.476;7.770;2023-06-10T08:42:45;22.40;99.90
30764;DHT22;17497;51.476;7.770;2023-06-10T08:45:17;22.40;99.90
30764;DHT22;17497;51.476;7.770;2023-06-10T08:47:58;22.50;99.90
30764;DHT22;17497;51.476;7.770;2023-06-10T08:50:28;22.50;99.90
30764;DHT22;17497;51.476;7.770;2023-06-10T08:52:58;22.60;99.90
30764;DHT22;17497;51.476;7.770;2023-06-10T08:55:44;22.60;99.90
30764;DHT22;17497;51.476;7.770;2023-06-10T08:58:26;22.70;99.90
30764;DHT22;17497;51.476;7.770;2023-06-10T09:01:14;22.90;99.90
30764;DHT22;17497;51.476;7.770;2023-06-10T09:03:43;23.00;99.90
30764;DHT22;17497;51.476;7.770;2023-06-10T09:06:13;23.10;99.90
30764;DHT22;17497;51.476;7.770;2023-06-10T09:08:40;23.20;99.90
30764;DHT22;17497;51.476;7.770;2023-06-10T09:11:07;23.30;99.90
30764;DHT22;17497;51.476;7.770;2023-06-10T09:13:34;23.40;99.90
30764;DHT22;17497;51.476;7.770;2023-06-10T09:16:01;23.50;99.90
30764;DHT22;17497;51.476;7.770;2023-06-10T09:18:29;23.70;99.90
30764;DHT22;17497;51.476;7.770;2023-06-10T09:20:56;23.80;99.90
30764;DHT22;17497;51.476;7.770;2023-06-10T09:23:23;24.00;99.90
30764;DHT22;17497;51.476;7.770;2023-06-10T09:25:58;24.10;99.90
30764;DHT22;17497;51.476;7.770;2023-06-10T09:28:26;24.20;99.90
30764;DHT22;17497;51.476;7.770;2023-06-10T09:31:06;24.30;99.90
30764;DHT22;17497;51.476;7.770;2023-06-10T09:33:37;24.40;99.90
30764;DHT22;17497;51.476;7.770;2023-06-10T09:36:05;24.50;99.90
30764;DHT22;17497;51.476;7.770;2023-06-10T09:38:34;24.70;99.90
30764;DHT22;17497;51.476;7.770;2023-06-10T09:41:03;24.80;99.90
30764;DHT22;17497;51.476;7.770;2023-06-10T09:43:40;24.90;99.90
30764;DHT22;17497;51.476;7.770;2023-06-10T09:46:16;25.10;99.90
30764;DHT22;17497;51.476;7.770;2023-06-10T09:48:47;25.30;99.90
30764;DHT22;17497;51.476;7.770;2023-06-10T09:51:18;25.50;99.90
30764;DHT22;17497;51.476;7.770;2023-06-10T09:53:50;25.60;99.90
30764;DHT22;17497;51.476;7.770;2023-06-10T09:56:18;25.80;99.90
30764;DHT22;17497;51.476;7.770;2023-06-10T09:58:45;25.90;99.90
30764;DHT22;17497;51.476;7.770;2023-06-10T10:01:14;26.10;99.90
30764;DHT22;17497;51.476;7.770;2023-06-10T10:03:50;26.20;99.90
30764;DHT22;17497;51.476;7.770;2023-06-10T10:06:20;26.30;99.90
30764;DHT22;17497;51.476;7.770;2023-06-10T10:08:51;26.40;99.90
30764;DHT22;17497;51.476;7.770;2023-06-10T10:11:20;26.50;99.90
30764;DHT22;17497;51.476;7.770;2023-06-10T10:13:50;26.70;99.90
30764;DHT22;17497;51.476;7.770;2023-06-10T10:16:33;26.80;99.90
30764;DHT22;17497;51.476;7.770;2023-06-10T10:19:14;26.90;99.90
30764;DHT22;17497;51.476;7.770;2023-06-10T10:21:53;27.10;99.90
30764;DHT22;17497;51.476;7.770;2023-06-10T10:24:33;27.30;99.90
30764;DHT22;17497;51.476;7.770;2023-06-10T10:27:11;27.50;99.90
30764;DHT22;17497;51.476;7.770;2023-06-10T10:29:40;27.80;99.90
30764;DHT22;17497;51.476;7.770;2023-06-10T10:32:07;27.90;99.90
30764;DHT22;17497;51.476;7.770;2023-06-10T10:35:08;28.10;99.90
30764;DHT22;17497;51.476;7.770;2023-06-10T10:37:52;28.20;99.90
30764;DHT22;17497;51.476;7.770;2023-06-10T10:40:24;28.30;99.90
30764;DHT22;17497;51.476;7.770;2023-06-10T10:42:52;28.40;99.90
30764;DHT22;17497;51.476;7.770;2023-06-10T10:45:21;28.50;99.90
30764;DHT22;17497;51.476;7.770;2023-06-10T10:47:52;28.50;99.90
30764;DHT22;17497;51.476;7.770;2023-06-10T10:50:20;28.60;99.90
30764;DHT22;17497;51.476;7.770;2023-06-10T10:53:02;28.80;99.90
30764;DHT22;17497;51.476;7.770;2023-06-10T10:55:29;29.00;99.80
30764;DHT22;17497;51.476;7.770;2023-06-10T10:58:09;29.20;98.20
30764;DHT22;17497;51.476;7.770;2023-06-10T11:00:43;29.50;97.50
30764;DHT22;17497;51.476;7.770;2023-06-10T11:03:16;29.80;97.10
30764;DHT22;17497;51.476;7.770;2023-06-10T11:05:46;30.00;96.70
30764;DHT22;17497;51.476;7.770;2023-06-10T11:10:55;30.50;95.40
30764;DHT22;17497;51.476;7.770;2023-06-10T11:13:23;30.80;95.00
30764;DHT22;17497;51.476;7.770;2023-06-10T11:15:52;31.00;92.00
30764;DHT22;17497;51.476;7.770;2023-06-10T11:31:19;32.50;85.10
30764;DHT22;17497;51.476;7.770;2023-06-10T11:33:49;32.70;85.00
30764;DHT22;17497;51.476;7.770;2023-06-10T11:36:18;33.10;80.60
30764;DHT22;17497;51.476;7.770;2023-06-10T11:38:45;33.40;78.20
30764;DHT22;17497;51.476;7.770;2023-06-10T11:41:13;33.50;76.70
30764;DHT22;17497;51.476;7.770;2023-06-10T11:43:47;33.60;75.10
30764;DHT22;17497;51.476;7.770;2023-06-10T11:46:14;33.70;72.20
30764;DHT22;17497;51.476;7.770;2023-06-10T11:48:58;33.80;71.90
30764;DHT22;17497;51.476;7.770;2023-06-10T11:51:27;33.90;71.10
30764;DHT22;17497;51.476;7.770;2023-06-10T11:53:57;34.00;73.10
30764;DHT22;17497;51.476;7.770;2023-06-10T11:56:26;34.10;70.90
30764;DHT22;17497;51.476;7.770;2023-06-10T12:01:25;34.20;70.80
30764;DHT22;17497;51.476;7.770;2023-06-10T12:04:07;34.30;69.90
30764;DHT22;17497;51.476;7.770;2023-06-10T12:07:00;34.40;64.40
30764;DHT22;17497;51.476;7.770;2023-06-10T12:13:58;34.50;66.00
30764;DHT22;17497;51.476;7.770;2023-06-10T12:16:39;34.50;63.20
30764;DHT22;17497;51.476;7.770;2023-06-10T12:19:15;34.50;63.00
30764;DHT22;17497;51.476;7.770;2023-06-10T12:21:47;34.50;62.10
30764;DHT22;17497;51.476;7.770;2023-06-10T12:24:14;34.50;61.40
30764;DHT22;17497;51.476;7.770;2023-06-10T12:26:47;34.40;61.20
30764;DHT22;17497;51.476;7.770;2023-06-10T12:29:22;34.30;59.10
30764;DHT22;17497;51.476;7.770;2023-06-10T12:32:02;34.40;59.70
30764;DHT22;17497;51.476;7.770;2023-06-10T12:34:37;34.40;58.40
30764;DHT22;17497;51.476;7.770;2023-06-10T12:37:11;34.40;57.60
30764;DHT22;17497;51.476;7.770;2023-06-10T12:39:42;34.30;57.70
30764;DHT22;17497;51.476;7.770;2023-06-10T12:42:12;34.20;58.50
30764;DHT22;17497;51.476;7.770;2023-06-10T12:44:39;34.20;57.90
30764;DHT22;17497;51.476;7.770;2023-06-10T12:47:09;34.40;58.80
30764;DHT22;17497;51.476;7.770;2023-06-10T12:49:37;34.40;57.70
30764;DHT22;17497;51.476;7.770;2023-06-10T12:52:05;34.30;56.00
30764;DHT22;17497;51.476;7.770;2023-06-10T12:54:33;34.30;56.70
30764;DHT22;17497;51.476;7.770;2023-06-10T12:57:01;34.50;56.30
30764;DHT22;17497;51.476;7.770;2023-06-10T12:59:28;34.60;55.70
30764;DHT22;17497;51.476;7.770;2023-06-10T13:01:55;34.80;54.80
30764;DHT22;17497;51.476;7.770;2023-06-10T13:04:22;34.70;53.70
30764;DHT22;17497;51.476;7.770;2023-06-10T13:06:49;34.60;55.30
30764;DHT22;17497;51.476;7.770;2023-06-10T13:09:16;34.50;55.30
30764;DHT22;17497;51.476;7.770;2023-06-10T13:11:43;34.50;55.40
30764;DHT22;17497;51.476;7.770;2023-06-10T13:14:11;34.60;53.10
30764;DHT22;17497;51.476;7.770;2023-06-10T13:16:38;34.60;54.70
30764;DHT22;17497;51.476;7.770;2023-06-10T13:19:07;34.50;55.30
30764;DHT22;17497;51.476;7.770;2023-06-10T13:21:34;34.70;55.70
30764;DHT22;17497;51.476;7.770;2023-06-10T13:24:07;34.90;55.30
30764;DHT22;17497;51.476;7.770;2023-06-10T13:26:37;34.90;53.30
30764;DHT22;17497;51.476;7.770;2023-06-10T13:29:05;35.10;54.20
30764;DHT22;17497;51.476;7.770;2023-06-10T13:31:34;35.20;51.40
30764;DHT22;17497;51.476;7.770;2023-06-10T13:34:01;35.40;51.40
30764;DHT22;17497;51.476;7.770;2023-06-10T13:36:28;35.50;51.60
30764;DHT22;17497;51.476;7.770;2023-06-10T13:38:55;35.40;50.40
30764;DHT22;17497;51.476;7.770;2023-06-10T13:41:22;35.30;49.80
30764;DHT22;17497;51.476;7.770;2023-06-10T13:43:49;35.30;50.40
30764;DHT22;17497;51.476;7.770;2023-06-10T13:46:17;35.30;49.20
30764;DHT22;17497;51.476;7.770;2023-06-10T13:48:44;35.30;48.20
30764;DHT22;17497;51.476;7.770;2023-06-10T13:51:11;35.20;49.60
30764;DHT22;17497;51.476;7.770;2023-06-10T13:53:38;35.10;50.10
30764;DHT22;17497;51.476;7.770;2023-06-10T13:56:05;35.10;50.40
30764;DHT22;17497;51.476;7.770;2023-06-10T13:58:32;35.20;48.90
30764;DHT22;17497;51.476;7.770;2023-06-10T14:00:58;35.10;51.10
30764;DHT22;17497;51.476;7.770;2023-06-10T14:03:25;35.10;50.20
30764;DHT22;17497;51.476;7.770;2023-06-10T14:05:52;35.30;49.90
30764;DHT22;17497;51.476;7.770;2023-06-10T14:08:19;35.50;48.40
30764;DHT22;17497;51.476;7.770;2023-06-10T14:10:50;35.50;47.60
30764;DHT22;17497;51.476;7.770;2023-06-10T14:13:18;35.60;48.30
30764;DHT22;17497;51.476;7.770;2023-06-10T14:15:48;35.50;46.70
30764;DHT22;17497;51.476;7.770;2023-06-10T14:18:22;35.30;48.00
30764;DHT22;17497;51.476;7.770;2023-06-10T14:20:49;35.30;48.70
30764;DHT22;17497;51.476;7.770;2023-06-10T14:23:16;35.40;47.80
30764;DHT22;17497;51.476;7.770;2023-06-10T14:25:48;35.30;46.70
30764;DHT22;17497;51.476;7.770;2023-06-10T14:28:18;35.20;47.80
30764;DHT22;17497;51.476;7.770;2023-06-10T14:30:45;35.20;47.90
30764;DHT22;17497;51.476;7.770;2023-06-10T14:33:12;35.30;47.60
30764;DHT22;17497;51.476;7.770;2023-06-10T14:35:39;35.30;47.90
30764;DHT22;17497;51.476;7.770;2023-06-10T14:38:06;35.20;48.20
30764;DHT22;17497;51.476;7.770;2023-06-10T14:40:34;35.20;46.70
30764;DHT22;17497;51.476;7.770;2023-06-10T14:43:00;35.10;47.50
30764;DHT22;17497;51.476;7.770;2023-06-10T14:45:30;35.10;48.10
30764;DHT22;17497;51.476;7.770;2023-06-10T14:48:01;35.00;48.20
30764;DHT22;17497;51.476;7.770;2023-06-10T14:50:27;34.80;47.20
30764;DHT22;17497;51.476;7.770;2023-06-10T14:52:54;34.80;47.90
30764;DHT22;17497;51.476;7.770;2023-06-10T14:55:21;34.80;48.50
30764;DHT22;17497;51.476;7.770;2023-06-10T14:57:49;34.90;47.90
30764;DHT22;17497;51.476;7.770;2023-06-10T15:00:16;35.00;48.20
30764;DHT22;17497;51.476;7.770;2023-06-10T15:02:47;35.20;47.40
30764;DHT22;17497;51.476;7.770;2023-06-10T15:05:17;35.10;47.60
30764;DHT22;17497;51.476;7.770;2023-06-10T15:07:50;35.00;48.20
30764;DHT22;17497;51.476;7.770;2023-06-10T15:10:22;34.90;48.60
30764;DHT22;17497;51.476;7.770;2023-06-10T15:12:51;35.00;49.10
30764;DHT22;17497;51.476;7.770;2023-06-10T15:15:23;34.80;48.50
30764;DHT22;17497;51.476;7.770;2023-06-10T15:17:50;34.90;48.20
30764;DHT22;17497;51.476;7.770;2023-06-10T15:20:17;34.90;50.00
30764;DHT22;17497;51.476;7.770;2023-06-10T15:22:44;34.90;50.70
30764;DHT22;17497;51.476;7.770;2023-06-10T15:25:11;35.10;49.60
30764;DHT22;17497;51.476;7.770;2023-06-10T15:27:40;35.10;47.70
30764;DHT22;17497;51.476;7.770;2023-06-10T15:30:07;35.10;48.80
30764;DHT22;17497;51.476;7.770;2023-06-10T15:32:34;35.20;46.20
30764;DHT22;17497;51.476;7.770;2023-06-10T15:35:02;35.20;47.00
30764;DHT22;17497;51.476;7.770;2023-06-10T15:37:29;35.10;47.50
30764;DHT22;17497;51.476;7.770;2023-06-10T15:40:00;35.10;48.70
30764;DHT22;17497;51.476;7.770;2023-06-10T15:42:26;35.20;49.60
30764;DHT22;17497;51.476;7.770;2023-06-10T15:44:53;35.30;48.30
30764;DHT22;17497;51.476;7.770;2023-06-10T15:47:20;35.30;50.40
30764;DHT22;17497;51.476;7.770;2023-06-10T15:49:47;35.50;49.10
30764;DHT22;17497;51.476;7.770;2023-06-10T15:52:14;35.80;47.70
30764;DHT22;17497;51.476;7.770;2023-06-10T15:54:41;35.90;46.50
30764;DHT22;17497;51.476;7.770;2023-06-10T15:57:08;35.80;47.50
30764;DHT22;17497;51.476;7.770;2023-06-10T15:59:35;35.70;47.40
30764;DHT22;17497;51.476;7.770;2023-06-10T16:02:02;35.60;48.80
30764;DHT22;17497;51.476;7.770;2023-06-10T16:04:30;35.80;49.00
30764;DHT22;17497;51.476;7.770;2023-06-10T16:06:57;36.00;48.60
30764;DHT22;17497;51.476;7.770;2023-06-10T16:09:24;36.20;48.20
30764;DHT22;17497;51.476;7.770;2023-06-10T16:11:51;36.50;46.40
30764;DHT22;17497;51.476;7.770;2023-06-10T16:14:17;36.50;46.30
30764;DHT22;17497;51.476;7.770;2023-06-10T16:16:44;36.30;46.70
30764;DHT22;17497;51.476;7.770;2023-06-10T16:19:11;36.20;47.30
30764;DHT22;17497;51.476;7.770;2023-06-10T16:21:38;36.00;47.10
30764;DHT22;17497;51.476;7.770;2023-06-10T16:24:07;35.90;47.80
30764;DHT22;17497;51.476;7.770;2023-06-10T16:26:35;36.00;49.10
30764;DHT22;17497;51.476;7.770;2023-06-10T16:29:04;36.20;48.30
30764;DHT22;17497;51.476;7.770;2023-06-10T16:31:31;36.30;47.20
30764;DHT22;17497;51.476;7.770;2023-06-10T16:33:58;36.30;46.60
30764;DHT22;17497;51.476;7.770;2023-06-10T16:36:25;36.20;46.30
30764;DHT22;17497;51.476;7.770;2023-06-10T16:38:52;36.20;46.50
30764;DHT22;17497;51.476;7.770;2023-06-10T16:41:21;36.00;47.10
30764;DHT22;17497;51.476;7.770;2023-06-10T16:43:48;35.90;47.50
30764;DHT22;17497;51.476;7.770;2023-06-10T16:46:15;35.90;47.10
30764;DHT22;17497;51.476;7.770;2023-06-10T16:48:41;35.80;47.80